sensor_id;sensor_type;location;lat;lon;timestamp;P1;durP1;ratioP1;P2;durP2;ratioP2
35550;SDS011;21655;46.056;13.616;2022-10-26T00:02:02;10.45;;;2.28;;
35550;SDS011;21655;46.056;13.616;2022-10-26T00:04:28;7.90;;;2.50;;
35550;SDS011;21655;46.056;13.616;2022-10-26T00:06:53;8.52;;;1.98;;
35550;SDS011;21655;46.056;13.616;2022-10-26T00:09:18;11.63;;;2.70;;
35550;SDS011;21655;46.056;13.616;2022-10-26T00:11:44;6.47;;;1.85;;
35550;SDS011;21655;46.056;13.616;2022-10-26T00:14:09;19.95;;;2.20;;
35550;SDS011;21655;46.056;13.616;2022-10-26T00:16:35;8.30;;;2.15;;
35550;SDS011;21655;46.056;13.616;2022-10-26T00:19:00;15.38;;;2.35;;
35550;SDS011;21655;46.056;13.616;2022-10-26T00:21:25;12.35;;;2.38;;
35550;SDS011;21655;46.056;13.616;2022-10-26T00:23:51;9.95;;;2.15;;
35550;SDS011;21655;46.056;13.616;2022-10-26T00:26:16;11.63;;;2.20;;
35550;SDS011;21655;46.056;13.616;2022-10-26T00:28:42;10.10;;;2.45;;
35550;SDS011;21655;46.056;13.616;2022-10-26T00:31:10;11.23;;;2.53;;
35550;SDS011;21655;46.056;13.616;2022-10-26T00:33:37;7.20;;;1.75;;
35550;SDS011;21655;46.056;13.616;2022-10-26T00:36:03;9.43;;;2.20;;
35550;SDS011;21655;46.056;13.616;2022-10-26T00:38:29;6.18;;;2.35;;
35550;SDS011;21655;46.056;13.616;2022-10-26T00:40:55;5.00;;;2.15;;
35550;SDS011;21655;46.056;13.616;2022-10-26T00:45:46;7.57;;;1.95;;
35550;SDS011;21655;46.056;13.616;2022-10-26T00:48:18;3.40;;;1.63;;
35550;SDS011;21655;46.056;13.616;2022-10-26T00:50:48;7.63;;;2.03;;
35550;SDS011;21655;46.056;13.616;2022-10-26T00:53:15;9.55;;;2.10;;
35550;SDS011;21655;46.056;13.616;2022-10-26T00:55:45;4.10;;;1.60;;
35550;SDS011;21655;46.056;13.616;2022-10-26T00:58:13;8.68;;;2.42;;
35550;SDS011;21655;46.056;13.616;2022-10-26T01:00:41;4.88;;;1.77;;
35550;SDS011;21655;46.056;13.616;2022-10-26T01:03:08;4.85;;;1.88;;
35550;SDS011;21655;46.056;13.616;2022-10-26T01:05:36;14.45;;;2.15;;
35550;SDS011;21655;46.056;13.616;2022-10-26T01:08:04;7.40;;;1.77;;
35550;SDS011;21655;46.056;13.616;2022-10-26T01:10:31;4.55;;;1.65;;
35550;SDS011;21655;46.056;13.616;2022-10-26T01:12:57;7.85;;;1.88;;
35550;SDS011;21655;46.056;13.616;2022-10-26T01:15:26;8.15;;;1.92;;
35550;SDS011;21655;46.056;13.616;2022-10-26T01:18:06;9.70;;;2.30;;
35550;SDS011;21655;46.056;13.616;2022-10-26T01:23:44;7.78;;;1.70;;
35550;SDS011;21655;46.056;13.616;2022-10-26T01:32:00;6.70;;;1.70;;
35550;SDS011;21655;46.056;13.616;2022-10-26T01:34:47;8.07;;;1.88;;
35550;SDS011;21655;46.056;13.616;2022-10-26T01:37:23;7.93;;;2.25;;
35550;SDS011;21655;46.056;13.616;2022-10-26T01:39:57;10.30;;;1.92;;
35550;SDS011;21655;46.056;13.616;2022-10-26T01:42:36;8.73;;;2.03;;
35550;SDS011;21655;46.056;13.616;2022-10-26T01:45:08;10.32;;;2.28;;
35550;SDS011;21655;46.056;13.616;2022-10-26T01:47:37;7.45;;;1.98;;
35550;SDS011;21655;46.056;13.616;2022-10-26T01:50:03;7.43;;;1.88;;
35550;SDS011;21655;46.056;13.616;2022-10-26T01:52:31;6.43;;;1.90;;
35550;SDS011;21655;46.056;13.616;2022-10-26T01:55:01;4.72;;;1.60;;
35550;SDS011;21655;46.056;13.616;2022-10-26T01:57:47;4.65;;;1.95;;
35550;SDS011;21655;46.056;13.616;2022-10-26T02:00:16;10.23;;;1.95;;
35550;SDS011;21655;46.056;13.616;2022-10-26T02:02:48;8.00;;;2.20;;
35550;SDS011;21655;46.056;13.616;2022-10-26T02:05:32;10.48;;;2.13;;
35550;SDS011;21655;46.056;13.616;2022-10-26T02:13:54;5.30;;;1.70;;
35550;SDS011;21655;46.056;13.616;2022-10-26T02:16:42;10.98;;;2.00;;
35550;SDS011;21655;46.056;13.616;2022-10-26T02:21:55;11.50;;;2.00;;
35550;SDS011;21655;46.056;13.616;2022-10-26T02:24:42;15.60;;;2.20;;
35550;SDS011;21655;46.056;13.616;2022-10-26T02:27:12;9.85;;;1.75;;
35550;SDS011;21655;46.056;13.616;2022-10-26T02:29:44;5.47;;;2.03;;
35550;SDS011;21655;46.056;13.616;2022-10-26T02:32:12;5.95;;;1.40;;
35550;SDS011;21655;46.056;13.616;2022-10-26T02:34:38;4.85;;;1.52;;
35550;SDS011;21655;46.056;13.616;2022-10-26T02:37:10;8.98;;;1.42;;
35550;SDS011;21655;46.056;13.616;2022-10-26T02:39:37;4.68;;;1.70;;
35550;SDS011;21655;46.056;13.616;2022-10-26T02:42:05;4.85;;;1.73;;
35550;SDS011;21655;46.056;13.616;2022-10-26T02:44:39;5.00;;;1.58;;
35550;SDS011;21655;46.056;13.616;2022-10-26T02:47:08;10.85;;;2.10;;
35550;SDS011;21655;46.056;13.616;2022-10-26T02:49:34;4.15;;;1.30;;
35550;SDS011;21655;46.056;13.616;2022-10-26T02:54:40;6.57;;;1.70;;
35550;SDS011;21655;46.056;13.616;2022-10-26T02:57:18;8.25;;;1.80;;
35550;SDS011;21655;46.056;13.616;2022-10-26T03:00:14;6.32;;;1.58;;
35550;SDS011;21655;46.056;13.616;2022-10-26T03:02:41;10.38;;;1.63;;
35550;SDS011;21655;46.056;13.616;2022-10-26T03:10:07;10.43;;;1.83;;
35550;SDS011;21655;46.056;13.616;2022-10-26T03:12:33;12.27;;;2.05;;
35550;SDS011;21655;46.056;13.616;2022-10-26T03:14:58;8.15;;;1.40;;
35550;SDS011;21655;46.056;13.616;2022-10-26T03:17:23;22.48;;;2.42;;
35550;SDS011;21655;46.056;13.616;2022-10-26T03:19:49;9.50;;;1.90;;
35550;SDS011;21655;46.056;13.616;2022-10-26T03:22:14;13.68;;;1.88;;
35550;SDS011;21655;46.056;13.616;2022-10-26T03:24:40;18.35;;;2.80;;
35550;SDS011;21655;46.056;13.616;2022-10-26T03:27:05;14.20;;;2.22;;
35550;SDS011;21655;46.056;13.616;2022-10-26T03:29:30;10.73;;;1.55;;
35550;SDS011;21655;46.056;13.616;2022-10-26T03:31:56;9.77;;;1.95;;
35550;SDS011;21655;46.056;13.616;2022-10-26T03:34:21;9.52;;;1.67;;
35550;SDS011;21655;46.056;13.616;2022-10-26T03:36:47;8.55;;;2.10;;
35550;SDS011;21655;46.056;13.616;2022-10-26T03:39:12;11.07;;;1.90;;
35550;SDS011;21655;46.056;13.616;2022-10-26T03:41:38;9.70;;;1.80;;
35550;SDS011;21655;46.056;13.616;2022-10-26T03:44:04;6.68;;;1.70;;
35550;SDS011;21655;46.056;13.616;2022-10-26T03:46:29;14.35;;;2.20;;
35550;SDS011;21655;46.056;13.616;2022-10-26T03:48:55;6.38;;;2.10;;
35550;SDS011;21655;46.056;13.616;2022-10-26T03:51:20;7.05;;;1.70;;
35550;SDS011;21655;46.056;13.616;2022-10-26T03:53:45;12.30;;;2.10;;
35550;SDS011;21655;46.056;13.616;2022-10-26T03:56:11;10.20;;;2.42;;
35550;SDS011;21655;46.056;13.616;2022-10-26T03:58:36;24.08;;;1.92;;
35550;SDS011;21655;46.056;13.616;2022-10-26T04:01:01;11.70;;;1.70;;
35550;SDS011;21655;46.056;13.616;2022-10-26T04:03:27;7.55;;;1.98;;
35550;SDS011;21655;46.056;13.616;2022-10-26T04:05:52;14.45;;;1.92;;
35550;SDS011;21655;46.056;13.616;2022-10-26T04:08:18;10.23;;;1.90;;
35550;SDS011;21655;46.056;13.616;2022-10-26T04:10:44;3.90;;;1.60;;
35550;SDS011;21655;46.056;13.616;2022-10-26T04:13:10;7.60;;;1.63;;
35550;SDS011;21655;46.056;13.616;2022-10-26T04:15:36;8.75;;;1.55;;
35550;SDS011;21655;46.056;13.616;2022-10-26T04:18:01;6.03;;;1.88;;
35550;SDS011;21655;46.056;13.616;2022-10-26T04:20:27;7.95;;;1.80;;
35550;SDS011;21655;46.056;13.616;2022-10-26T04:23:01;6.50;;;1.85;;
35550;SDS011;21655;46.056;13.616;2022-10-26T04:25:31;15.55;;;2.03;;
35550;SDS011;21655;46.056;13.616;2022-10-26T04:27:57;9.13;;;1.63;;
35550;SDS011;21655;46.056;13.616;2022-10-26T04:30:23;7.88;;;1.63;;
35550;SDS011;21655;46.056;13.616;2022-10-26T04:32:49;5.55;;;1.58;;
35550;SDS011;21655;46.056;13.616;2022-10-26T04:35:14;6.88;;;1.77;;
35550;SDS011;21655;46.056;13.616;2022-10-26T04:37:39;9.30;;;1.80;;
35550;SDS011;21655;46.056;13.616;2022-10-26T04:40:05;11.82;;;1.75;;
35550;SDS011;21655;46.056;13.616;2022-10-26T04:42:30;7.88;;;1.95;;
35550;SDS011;21655;46.056;13.616;2022-10-26T04:45:04;8.10;;;2.10;;
35550;SDS011;21655;46.056;13.616;2022-10-26T04:47:30;10.00;;;2.33;;
35550;SDS011;21655;46.056;13.616;2022-10-26T04:49:55;7.57;;;2.58;;
35550;SDS011;21655;46.056;13.616;2022-10-26T04:52:21;9.93;;;2.97;;
35550;SDS011;21655;46.056;13.616;2022-10-26T04:54:46;11.00;;;3.25;;
35550;SDS011;21655;46.056;13.616;2022-10-26T04:57:12;6.63;;;3.13;;
35550;SDS011;21655;46.056;13.616;2022-10-26T04:59:37;12.15;;;3.10;;
35550;SDS011;21655;46.056;13.616;2022-10-26T05:02:02;12.52;;;2.10;;
35550;SDS011;21655;46.056;13.616;2022-10-26T05:04:28;10.13;;;2.97;;
35550;SDS011;21655;46.056;13.616;2022-10-26T05:06:53;9.45;;;2.28;;
35550;SDS011;21655;46.056;13.616;2022-10-26T05:09:18;5.43;;;1.52;;
35550;SDS011;21655;46.056;13.616;2022-10-26T05:11:44;6.70;;;1.90;;
35550;SDS011;21655;46.056;13.616;2022-10-26T05:14:09;10.90;;;2.60;;
35550;SDS011;21655;46.056;13.616;2022-10-26T05:16:37;9.05;;;2.10;;
35550;SDS011;21655;46.056;13.616;2022-10-26T05:19:02;5.03;;;1.75;;
35550;SDS011;21655;46.056;13.616;2022-10-26T05:21:27;4.72;;;1.60;;
35550;SDS011;21655;46.056;13.616;2022-10-26T05:23:53;12.25;;;2.15;;
35550;SDS011;21655;46.056;13.616;2022-10-26T05:26:22;8.85;;;2.08;;
35550;SDS011;21655;46.056;13.616;2022-10-26T05:28:48;7.53;;;1.70;;
35550;SDS011;21655;46.056;13.616;2022-10-26T05:31:15;8.30;;;2.00;;
35550;SDS011;21655;46.056;13.616;2022-10-26T05:33:41;3.55;;;1.80;;
35550;SDS011;21655;46.056;13.616;2022-10-26T05:36:06;6.93;;;1.63;;
35550;SDS011;21655;46.056;13.616;2022-10-26T05:38:32;6.88;;;1.88;;
35550;SDS011;21655;46.056;13.616;2022-10-26T05:40:58;10.73;;;2.08;;
35550;SDS011;21655;46.056;13.616;2022-10-26T05:43:23;12.50;;;1.98;;
35550;SDS011;21655;46.056;13.616;2022-10-26T05:45:51;7.57;;;1.55;;
35550;SDS011;21655;46.056;13.616;2022-10-26T05:48:17;6.80;;;1.75;;
35550;SDS011;21655;46.056;13.616;2022-10-26T05:50:43;5.72;;;1.85;;
35550;SDS011;21655;46.056;13.616;2022-10-26T05:53:09;8.30;;;1.92;;
35550;SDS011;21655;46.056;13.616;2022-10-26T05:55:34;10.93;;;2.17;;
35550;SDS011;21655;46.056;13.616;2022-10-26T05:58:00;7.10;;;1.67;;
35550;SDS011;21655;46.056;13.616;2022-10-26T06:00:26;10.25;;;2.00;;
35550;SDS011;21655;46.056;13.616;2022-10-26T06:05:36;9.35;;;1.75;;
35550;SDS011;21655;46.056;13.616;2022-10-26T06:08:23;8.27;;;1.52;;
35550;SDS011;21655;46.056;13.616;2022-10-26T06:10:50;7.65;;;1.42;;
35550;SDS011;21655;46.056;13.616;2022-10-26T06:13:18;18.98;;;2.28;;
35550;SDS011;21655;46.056;13.616;2022-10-26T06:16:08;12.48;;;2.10;;
35550;SDS011;21655;46.056;13.616;2022-10-26T06:21:26;6.25;;;2.25;;
35550;SDS011;21655;46.056;13.616;2022-10-26T06:30:05;6.90;;;1.70;;
35550;SDS011;21655;46.056;13.616;2022-10-26T06:32:37;8.57;;;1.67;;
35550;SDS011;21655;46.056;13.616;2022-10-26T06:37:51;6.15;;;1.77;;
35550;SDS011;21655;46.056;13.616;2022-10-26T06:40:18;5.70;;;1.55;;
35550;SDS011;21655;46.056;13.616;2022-10-26T06:42:44;11.93;;;1.60;;
35550;SDS011;21655;46.056;13.616;2022-10-26T06:45:11;6.22;;;1.60;;
35550;SDS011;21655;46.056;13.616;2022-10-26T06:50:28;10.93;;;1.70;;
35550;SDS011;21655;46.056;13.616;2022-10-26T06:55:29;6.45;;;2.00;;
35550;SDS011;21655;46.056;13.616;2022-10-26T06:58:12;7.40;;;1.45;;
35550;SDS011;21655;46.056;13.616;2022-10-26T07:00:43;6.82;;;1.48;;
35550;SDS011;21655;46.056;13.616;2022-10-26T07:03:11;8.93;;;2.67;;
35550;SDS011;21655;46.056;13.616;2022-10-26T07:05:37;4.25;;;1.70;;
35550;SDS011;21655;46.056;13.616;2022-10-26T07:08:03;7.85;;;1.98;;
35550;SDS011;21655;46.056;13.616;2022-10-26T07:10:28;8.25;;;1.70;;
35550;SDS011;21655;46.056;13.616;2022-10-26T07:12:54;4.57;;;1.55;;
35550;SDS011;21655;46.056;13.616;2022-10-26T07:15:19;7.05;;;1.88;;
35550;SDS011;21655;46.056;13.616;2022-10-26T07:17:46;6.82;;;1.70;;
35550;SDS011;21655;46.056;13.616;2022-10-26T07:20:13;7.55;;;1.60;;
35550;SDS011;21655;46.056;13.616;2022-10-26T07:22:39;2.60;;;1.17;;
35550;SDS011;21655;46.056;13.616;2022-10-26T07:25:06;11.93;;;1.92;;
35550;SDS011;21655;46.056;13.616;2022-10-26T07:27:33;19.77;;;3.17;;
35550;SDS011;21655;46.056;13.616;2022-10-26T07:29:58;12.90;;;2.72;;
35550;SDS011;21655;46.056;13.616;2022-10-26T07:32:24;7.43;;;1.42;;
35550;SDS011;21655;46.056;13.616;2022-10-26T07:34:49;4.97;;;1.73;;
35550;SDS011;21655;46.056;13.616;2022-10-26T07:37:15;7.63;;;1.65;;
35550;SDS011;21655;46.056;13.616;2022-10-26T07:39:40;4.85;;;1.60;;
35550;SDS011;21655;46.056;13.616;2022-10-26T07:42:05;3.95;;;1.55;;
35550;SDS011;21655;46.056;13.616;2022-10-26T07:44:31;5.65;;;1.58;;
35550;SDS011;21655;46.056;13.616;2022-10-26T07:46:56;5.03;;;1.70;;
35550;SDS011;21655;46.056;13.616;2022-10-26T07:49:22;9.52;;;1.98;;
35550;SDS011;21655;46.056;13.616;2022-10-26T07:51:47;7.47;;;1.70;;
35550;SDS011;21655;46.056;13.616;2022-10-26T07:54:13;11.25;;;2.10;;
35550;SDS011;21655;46.056;13.616;2022-10-26T07:56:38;6.90;;;1.35;;
35550;SDS011;21655;46.056;13.616;2022-10-26T07:59:03;8.55;;;1.60;;
35550;SDS011;21655;46.056;13.616;2022-10-26T08:01:29;5.82;;;1.40;;
35550;SDS011;21655;46.056;13.616;2022-10-26T08:03:54;8.70;;;1.70;;
35550;SDS011;21655;46.056;13.616;2022-10-26T08:06:21;5.05;;;1.58;;
35550;SDS011;21655;46.056;13.616;2022-10-26T08:08:47;7.65;;;1.30;;
35550;SDS011;21655;46.056;13.616;2022-10-26T08:11:12;8.57;;;2.00;;
35550;SDS011;21655;46.056;13.616;2022-10-26T08:13:39;6.20;;;1.30;;
35550;SDS011;21655;46.056;13.616;2022-10-26T08:16:04;5.90;;;1.65;;
35550;SDS011;21655;46.056;13.616;2022-10-26T08:18:30;10.60;;;1.50;;
35550;SDS011;21655;46.056;13.616;2022-10-26T08:21:03;14.45;;;1.65;;
35550;SDS011;21655;46.056;13.616;2022-10-26T08:23:31;6.90;;;1.77;;
35550;SDS011;21655;46.056;13.616;2022-10-26T08:25:58;4.60;;;1.48;;
35550;SDS011;21655;46.056;13.616;2022-10-26T08:28:24;8.05;;;1.60;;
35550;SDS011;21655;46.056;13.616;2022-10-26T08:30:50;8.18;;;1.40;;
35550;SDS011;21655;46.056;13.616;2022-10-26T08:33:15;7.70;;;1.75;;
35550;SDS011;21655;46.056;13.616;2022-10-26T08:35:41;7.25;;;1.75;;
35550;SDS011;21655;46.056;13.616;2022-10-26T08:38:06;8.00;;;1.40;;
35550;SDS011;21655;46.056;13.616;2022-10-26T08:40:34;2.75;;;1.38;;
35550;SDS011;21655;46.056;13.616;2022-10-26T08:48:45;4.50;;;1.52;;
35550;SDS011;21655;46.056;13.616;2022-10-26T08:53:48;9.25;;;1.77;;
35550;SDS011;21655;46.056;13.616;2022-10-26T08:56:23;10.48;;;1.70;;
35550;SDS011;21655;46.056;13.616;2022-10-26T08:58:58;12.10;;;2.20;;
35550;SDS011;21655;46.056;13.616;2022-10-26T09:01:32;9.40;;;2.83;;
35550;SDS011;21655;46.056;13.616;2022-10-26T09:03:58;6.30;;;2.28;;
35550;SDS011;21655;46.056;13.616;2022-10-26T09:14:16;8.30;;;1.45;;
35550;SDS011;21655;46.056;13.616;2022-10-26T09:25:28;6.15;;;1.58;;
35550;SDS011;21655;46.056;13.616;2022-10-26T09:27:44;6.95;;;1.30;;
35550;SDS011;21655;46.056;13.616;2022-10-26T09:30:17;4.90;;;1.27;;
35550;SDS011;21655;46.056;13.616;2022-10-26T09:32:45;2.97;;;1.15;;
35550;SDS011;21655;46.056;13.616;2022-10-26T09:35:20;8.20;;;1.20;;
35550;SDS011;21655;46.056;13.616;2022-10-26T09:37:48;8.18;;;1.52;;
35550;SDS011;21655;46.056;13.616;2022-10-26T09:43:09;5.00;;;1.27;;
35550;SDS011;21655;46.056;13.616;2022-10-26T09:46:01;4.47;;;1.08;;
35550;SDS011;21655;46.056;13.616;2022-10-26T09:48:35;9.10;;;1.48;;
35550;SDS011;21655;46.056;13.616;2022-10-26T09:51:09;6.38;;;1.30;;
35550;SDS011;21655;46.056;13.616;2022-10-26T09:53:35;6.00;;;1.52;;
35550;SDS011;21655;46.056;13.616;2022-10-26T09:56:05;11.32;;;1.10;;
35550;SDS011;21655;46.056;13.616;2022-10-26T09:58:42;5.20;;;1.40;;
35550;SDS011;21655;46.056;13.616;2022-10-26T10:06:41;8.63;;;2.38;;
35550;SDS011;21655;46.056;13.616;2022-10-26T10:11:40;8.07;;;2.03;;
35550;SDS011;21655;46.056;13.616;2022-10-26T10:14:07;7.97;;;1.20;;
35550;SDS011;21655;46.056;13.616;2022-10-26T10:16:38;9.05;;;1.50;;
35550;SDS011;21655;46.056;13.616;2022-10-26T10:19:05;5.35;;;1.33;;
35550;SDS011;21655;46.056;13.616;2022-10-26T10:21:43;8.38;;;1.23;;
35550;SDS011;21655;46.056;13.616;2022-10-26T10:24:21;18.50;;;2.47;;
35550;SDS011;21655;46.056;13.616;2022-10-26T10:26:55;310.05;;;24.27;;
35550;SDS011;21655;46.056;13.616;2022-10-26T10:29:44;6.22;;;2.15;;
35550;SDS011;21655;46.056;13.616;2022-10-26T10:34:51;9.85;;;2.20;;
35550;SDS011;21655;46.056;13.616;2022-10-26T10:37:25;11.70;;;2.30;;
35550;SDS011;21655;46.056;13.616;2022-10-26T10:39:55;7.78;;;2.60;;
35550;SDS011;21655;46.056;13.616;2022-10-26T10:42:33;9.95;;;2.90;;
35550;SDS011;21655;46.056;13.616;2022-10-26T10:45:01;13.98;;;2.78;;
35550;SDS011;21655;46.056;13.616;2022-10-26T10:47:33;12.73;;;3.05;;
35550;SDS011;21655;46.056;13.616;2022-10-26T10:50:04;7.32;;;2.58;;
35550;SDS011;21655;46.056;13.616;2022-10-26T10:52:41;6.00;;;2.28;;
35550;SDS011;21655;46.056;13.616;2022-10-26T10:57:51;9.68;;;2.80;;
35550;SDS011;21655;46.056;13.616;2022-10-26T11:00:35;5.78;;;2.72;;
35550;SDS011;21655;46.056;13.616;2022-10-26T11:03:22;10.27;;;3.22;;
35550;SDS011;21655;46.056;13.616;2022-10-26T11:08:54;12.45;;;3.30;;
35550;SDS011;21655;46.056;13.616;2022-10-26T11:11:36;8.93;;;3.00;;
35550;SDS011;21655;46.056;13.616;2022-10-26T11:14:08;11.48;;;3.38;;
35550;SDS011;21655;46.056;13.616;2022-10-26T11:16:42;9.93;;;3.25;;
35550;SDS011;21655;46.056;13.616;2022-10-26T11:19:21;8.10;;;3.35;;
35550;SDS011;21655;46.056;13.616;2022-10-26T11:21:53;8.98;;;3.47;;
35550;SDS011;21655;46.056;13.616;2022-10-26T11:24:30;9.10;;;3.30;;
35550;SDS011;21655;46.056;13.616;2022-10-26T11:27:20;12.27;;;3.25;;
35550;SDS011;21655;46.056;13.616;2022-10-26T11:30:05;8.77;;;3.75;;
35550;SDS011;21655;46.056;13.616;2022-10-26T11:35:24;12.30;;;3.67;;
35550;SDS011;21655;46.056;13.616;2022-10-26T11:40:23;9.23;;;4.00;;
35550;SDS011;21655;46.056;13.616;2022-10-26T11:45:42;15.07;;;4.20;;
35550;SDS011;21655;46.056;13.616;2022-10-26T11:48:20;13.52;;;4.10;;
35550;SDS011;21655;46.056;13.616;2022-10-26T11:50:55;16.38;;;4.55;;
35550;SDS011;21655;46.056;13.616;2022-10-26T11:53:24;15.73;;;4.70;;
35550;SDS011;21655;46.056;13.616;2022-10-26T11:56:12;15.07;;;4.82;;
35550;SDS011;21655;46.056;13.616;2022-10-26T11:59:00;14.05;;;4.93;;
35550;SDS011;21655;46.056;13.616;2022-10-26T12:01:26;12.18;;;5.32;;
35550;SDS011;21655;46.056;13.616;2022-10-26T12:03:53;14.68;;;4.90;;
35550;SDS011;21655;46.056;13.616;2022-10-26T12:06:27;12.15;;;5.38;;
35550;SDS011;21655;46.056;13.616;2022-10-26T12:08:57;11.43;;;5.72;;
35550;SDS011;21655;46.056;13.616;2022-10-26T12:16:57;10.70;;;5.10;;
35550;SDS011;21655;46.056;13.616;2022-10-26T12:22:12;12.80;;;5.20;;
35550;SDS011;21655;46.056;13.616;2022-10-26T12:24:43;12.63;;;5.10;;
35550;SDS011;21655;46.056;13.616;2022-10-26T12:38:53;13.43;;;5.45;;
35550;SDS011;21655;46.056;13.616;2022-10-26T12:40:48;11.18;;;5.50;;
35550;SDS011;21655;46.056;13.616;2022-10-26T12:48:51;12.38;;;6.13;;
35550;SDS011;21655;46.056;13.616;2022-10-26T12:53:54;10.38;;;5.40;;
35550;SDS011;21655;46.056;13.616;2022-10-26T12:56:23;11.30;;;4.90;;
35550;SDS011;21655;46.056;13.616;2022-10-26T13:02:10;10.23;;;4.80;;
35550;SDS011;21655;46.056;13.616;2022-10-26T13:05:36;12.30;;;5.47;;
35550;SDS011;21655;46.056;13.616;2022-10-26T13:08:07;25.70;;;5.57;;
35550;SDS011;21655;46.056;13.616;2022-10-26T13:10:35;11.90;;;4.82;;
35550;SDS011;21655;46.056;13.616;2022-10-26T13:13:04;15.60;;;5.18;;
35550;SDS011;21655;46.056;13.616;2022-10-26T13:15:35;11.40;;;4.50;;
35550;SDS011;21655;46.056;13.616;2022-10-26T13:18:16;11.88;;;4.35;;
35550;SDS011;21655;46.056;13.616;2022-10-26T13:21:16;10.30;;;4.03;;
35550;SDS011;21655;46.056;13.616;2022-10-26T13:26:25;11.88;;;4.28;;
35550;SDS011;21655;46.056;13.616;2022-10-26T13:28:59;16.20;;;5.20;;
35550;SDS011;21655;46.056;13.616;2022-10-26T13:33:57;10.77;;;4.50;;
35550;SDS011;21655;46.056;13.616;2022-10-26T13:38:58;11.13;;;4.30;;
35550;SDS011;21655;46.056;13.616;2022-10-26T13:41:37;11.68;;;5.22;;
35550;SDS011;21655;46.056;13.616;2022-10-26T13:44:05;10.82;;;4.75;;
35550;SDS011;21655;46.056;13.616;2022-10-26T13:46:36;16.25;;;6.80;;
35550;SDS011;21655;46.056;13.616;2022-10-26T13:49:06;12.70;;;5.27;;
35550;SDS011;21655;46.056;13.616;2022-10-26T13:51:42;22.45;;;7.85;;
35550;SDS011;21655;46.056;13.616;2022-10-26T13:54:15;14.60;;;4.85;;
35550;SDS011;21655;46.056;13.616;2022-10-26T13:56:54;12.88;;;4.25;;
35550;SDS011;21655;46.056;13.616;2022-10-26T13:59:25;10.85;;;4.57;;
35550;SDS011;21655;46.056;13.616;2022-10-26T14:04:50;10.45;;;4.72;;
35550;SDS011;21655;46.056;13.616;2022-10-26T14:07:24;12.40;;;4.53;;
35550;SDS011;21655;46.056;13.616;2022-10-26T14:09:59;15.40;;;4.97;;
35550;SDS011;21655;46.056;13.616;2022-10-26T14:12:25;11.15;;;5.53;;
35550;SDS011;21655;46.056;13.616;2022-10-26T14:15:07;14.30;;;5.20;;
35550;SDS011;21655;46.056;13.616;2022-10-26T14:17:34;10.02;;;5.07;;
35550;SDS011;21655;46.056;13.616;2022-10-26T14:19:59;13.23;;;5.25;;
35550;SDS011;21655;46.056;13.616;2022-10-26T14:22:26;13.30;;;4.85;;
35550;SDS011;21655;46.056;13.616;2022-10-26T14:24:56;10.30;;;5.18;;
35550;SDS011;21655;46.056;13.616;2022-10-26T14:27:29;18.08;;;5.13;;
35550;SDS011;21655;46.056;13.616;2022-10-26T14:29:56;13.30;;;4.88;;
35550;SDS011;21655;46.056;13.616;2022-10-26T14:32:25;12.68;;;5.57;;
35550;SDS011;21655;46.056;13.616;2022-10-26T14:34:56;16.52;;;5.85;;
35550;SDS011;21655;46.056;13.616;2022-10-26T14:37:26;13.07;;;5.88;;
35550;SDS011;21655;46.056;13.616;2022-10-26T14:40:03;10.77;;;5.82;;
35550;SDS011;21655;46.056;13.616;2022-10-26T14:42:48;12.60;;;5.20;;
35550;SDS011;21655;46.056;13.616;2022-10-26T14:47:54;12.45;;;5.82;;
35550;SDS011;21655;46.056;13.616;2022-10-26T14:50:22;15.55;;;5.82;;
35550;SDS011;21655;46.056;13.616;2022-10-26T14:52:52;10.25;;;5.75;;
35550;SDS011;21655;46.056;13.616;2022-10-26T14:55:20;14.73;;;5.60;;
35550;SDS011;21655;46.056;13.616;2022-10-26T14:57:46;16.30;;;6.35;;
35550;SDS011;21655;46.056;13.616;2022-10-26T15:00:18;15.70;;;6.20;;
35550;SDS011;21655;46.056;13.616;2022-10-26T15:02:57;16.50;;;6.50;;
35550;SDS011;21655;46.056;13.616;2022-10-26T15:07:49;15.30;;;6.68;;
35550;SDS011;21655;46.056;13.616;2022-10-26T15:15:43;20.05;;;7.00;;
35550;SDS011;21655;46.056;13.616;2022-10-26T15:18:14;14.40;;;6.30;;
35550;SDS011;21655;46.056;13.616;2022-10-26T15:20:52;20.05;;;6.75;;
35550;SDS011;21655;46.056;13.616;2022-10-26T15:23:19;13.90;;;6.70;;
35550;SDS011;21655;46.056;13.616;2022-10-26T15:25:51;16.65;;;6.18;;
35550;SDS011;21655;46.056;13.616;2022-10-26T15:28:29;18.92;;;7.40;;
35550;SDS011;21655;46.056;13.616;2022-10-26T15:36:18;17.35;;;7.63;;
35550;SDS011;21655;46.056;13.616;2022-10-26T15:38:53;19.17;;;7.18;;
35550;SDS011;21655;46.056;13.616;2022-10-26T15:43:51;19.63;;;7.30;;
35550;SDS011;21655;46.056;13.616;2022-10-26T15:46:22;20.17;;;7.85;;
35550;SDS011;21655;46.056;13.616;2022-10-26T15:48:52;21.25;;;7.50;;
35550;SDS011;21655;46.056;13.616;2022-10-26T15:51:22;15.60;;;7.63;;
35550;SDS011;21655;46.056;13.616;2022-10-26T15:53:48;25.65;;;8.30;;
35550;SDS011;21655;46.056;13.616;2022-10-26T15:56:17;19.70;;;7.95;;
35550;SDS011;21655;46.056;13.616;2022-10-26T15:58:44;24.85;;;8.20;;
35550;SDS011;21655;46.056;13.616;2022-10-26T16:01:44;18.65;;;8.10;;
35550;SDS011;21655;46.056;13.616;2022-10-26T16:04:02;18.92;;;8.27;;
35550;SDS011;21655;46.056;13.616;2022-10-26T16:06:32;16.33;;;8.60;;
35550;SDS011;21655;46.056;13.616;2022-10-26T16:09:00;19.45;;;8.10;;
35550;SDS011;21655;46.056;13.616;2022-10-26T16:11:27;21.50;;;8.73;;
35550;SDS011;21655;46.056;13.616;2022-10-26T16:13:53;19.00;;;8.70;;
35550;SDS011;21655;46.056;13.616;2022-10-26T16:16:19;22.15;;;8.32;;
35550;SDS011;21655;46.056;13.616;2022-10-26T16:18:46;20.40;;;8.73;;
35550;SDS011;21655;46.056;13.616;2022-10-26T16:21:16;21.60;;;8.85;;
35550;SDS011;21655;46.056;13.616;2022-10-26T16:23:47;26.45;;;9.52;;
35550;SDS011;21655;46.056;13.616;2022-10-26T16:26:14;17.20;;;8.02;;
35550;SDS011;21655;46.056;13.616;2022-10-26T16:28:40;26.58;;;8.77;;
35550;SDS011;21655;46.056;13.616;2022-10-26T16:31:07;19.05;;;8.95;;
35550;SDS011;21655;46.056;13.616;2022-10-26T16:33:35;23.75;;;9.93;;
35550;SDS011;21655;46.056;13.616;2022-10-26T16:36:01;20.92;;;9.48;;
35550;SDS011;21655;46.056;13.616;2022-10-26T16:38:27;18.08;;;9.07;;
35550;SDS011;21655;46.056;13.616;2022-10-26T16:41:16;19.40;;;9.15;;
35550;SDS011;21655;46.056;13.616;2022-10-26T16:43:42;23.75;;;9.85;;
35550;SDS011;21655;46.056;13.616;2022-10-26T16:46:13;26.98;;;10.95;;
35550;SDS011;21655;46.056;13.616;2022-10-26T16:48:41;19.77;;;10.73;;
35550;SDS011;21655;46.056;13.616;2022-10-26T16:51:08;25.55;;;11.30;;
35550;SDS011;21655;46.056;13.616;2022-10-26T16:53:38;26.02;;;10.75;;
35550;SDS011;21655;46.056;13.616;2022-10-26T16:56:04;21.45;;;12.93;;
35550;SDS011;21655;46.056;13.616;2022-10-26T16:58:31;20.42;;;12.10;;
35550;SDS011;21655;46.056;13.616;2022-10-26T17:00:57;26.35;;;12.60;;
35550;SDS011;21655;46.056;13.616;2022-10-26T17:03:22;21.30;;;13.25;;
35550;SDS011;21655;46.056;13.616;2022-10-26T17:05:53;32.20;;;13.82;;
35550;SDS011;21655;46.056;13.616;2022-10-26T17:08:20;24.95;;;12.68;;
35550;SDS011;21655;46.056;13.616;2022-10-26T17:10:45;27.77;;;11.77;;
35550;SDS011;21655;46.056;13.616;2022-10-26T17:13:11;28.58;;;12.07;;
35550;SDS011;21655;46.056;13.616;2022-10-26T17:15:36;30.00;;;11.82;;
35550;SDS011;21655;46.056;13.616;2022-10-26T17:18:01;25.23;;;10.75;;
35550;SDS011;21655;46.056;13.616;2022-10-26T17:20:27;21.98;;;11.25;;
35550;SDS011;21655;46.056;13.616;2022-10-26T17:22:53;20.90;;;11.02;;